createdAt,value
2019-05-30T00:01:56.492Z,9.10
2019-05-30T00:04:26.449Z,9.20
2019-05-30T00:07:14.903Z,7.50
2019-05-30T00:09:45.243Z,6.40
2019-05-30T00:12:19.651Z,7.57
2019-05-30T00:14:56.635Z,8.97
2019-05-30T00:17:27.781Z,10.57
2019-05-30T00:19:59.132Z,9.97
2019-05-30T00:22:29.653Z,10.67
2019-05-30T00:25:00.067Z,7.57
2019-05-30T00:27:30.490Z,7.53
2019-05-30T00:30:01.385Z,7.87
2019-05-30T00:32:32.469Z,7.13
2019-05-30T00:35:03.758Z,7.40
2019-05-30T00:37:36.700Z,8.83
2019-05-30T00:40:10.300Z,7.80
2019-05-30T00:42:40.010Z,7.63
2019-05-30T00:45:21.051Z,7.33
2019-05-30T00:47:42.808Z,8.93
2019-05-30T00:50:12.920Z,7.17
2019-05-30T00:52:43.060Z,5.53
2019-05-30T00:55:12.756Z,11.27
2019-05-30T00:57:42.681Z,8.00
2019-05-30T01:00:12.686Z,8.43
2019-05-30T01:02:42.525Z,6.73
2019-05-30T01:05:12.409Z,8.40
2019-05-30T01:07:42.254Z,10.40
2019-05-30T01:10:12.773Z,9.67
2019-05-30T01:12:42.459Z,8.77
2019-05-30T01:15:12.583Z,7.20
2019-05-30T01:17:42.611Z,5.77
2019-05-30T01:20:12.511Z,4.93
2019-05-30T01:22:42.630Z,12.17
2019-05-30T01:25:12.542Z,5.87
2019-05-30T01:27:42.689Z,10.33
2019-05-30T01:30:12.898Z,4.83
2019-05-30T01:32:42.896Z,8.53
2019-05-30T01:35:12.815Z,8.70
2019-05-30T01:37:43.151Z,7.03
2019-05-30T01:40:13.257Z,6.30
2019-05-30T01:42:43.065Z,7.13
2019-05-30T01:45:12.889Z,8.80
2019-05-30T01:47:42.812Z,7.57
2019-05-30T01:50:13.023Z,6.87
2019-05-30T01:52:43.240Z,8.60
2019-05-30T01:55:13.466Z,9.73
2019-05-30T01:57:43.486Z,7.47
2019-05-30T02:00:20.612Z,6.13
2019-05-30T02:02:44.955Z,9.80
2019-05-30T02:05:15.269Z,6.50
2019-05-30T02:07:45.602Z,5.80
2019-05-30T02:10:15.812Z,8.43
2019-05-30T02:12:46.029Z,8.67
2019-05-30T02:15:15.843Z,9.03
2019-05-30T02:17:45.865Z,6.97
2019-05-30T02:20:16.289Z,7.47
2019-05-30T02:22:46.196Z,8.43
2019-05-30T02:25:16.220Z,6.50
2019-05-30T02:27:46.333Z,6.03
2019-05-30T02:30:16.888Z,7.33
2019-05-30T02:32:47.102Z,6.37
2019-05-30T02:35:17.019Z,6.10
2019-05-30T02:37:46.707Z,7.20
2019-05-30T02:40:17.562Z,7.00
2019-05-30T02:42:47.560Z,6.13
2019-05-30T02:45:17.479Z,5.77
2019-05-30T02:47:49.540Z,7.83
2019-05-30T02:50:20.580Z,5.87
2019-05-30T02:52:50.286Z,9.77
2019-05-30T02:55:20.411Z,5.90
2019-05-30T02:57:50.115Z,7.93
2019-05-30T03:00:23.308Z,7.00
2019-05-30T03:02:53.432Z,6.93
2019-05-30T03:05:22.928Z,9.60
2019-05-30T03:07:53.287Z,14.43
2019-05-30T03:10:23.591Z,6.57
2019-05-30T03:12:53.625Z,8.50
2019-05-30T03:15:23.624Z,7.10
2019-05-30T03:17:53.531Z,7.40
2019-05-30T03:20:23.695Z,7.17
2019-05-30T03:22:53.888Z,5.97
2019-05-30T03:25:23.469Z,9.10
2019-05-30T03:27:53.501Z,6.90
2019-05-30T03:30:28.460Z,6.40
2019-05-30T03:33:14.415Z,11.47
2019-05-30T03:35:30.587Z,7.07
2019-05-30T03:37:58.264Z,9.37
2019-05-30T03:40:47.127Z,11.13
2019-05-30T03:43:17.449Z,8.43
2019-05-30T03:45:47.598Z,7.50
2019-05-30T03:48:19.426Z,7.60
2019-05-30T03:50:51.012Z,7.03
2019-05-30T03:53:21.436Z,7.57
2019-05-30T03:55:54.286Z,6.43
2019-05-30T03:58:30.454Z,5.87
2019-05-30T04:01:02.529Z,6.90
2019-05-30T04:03:44.007Z,8.30
2019-05-30T04:06:16.613Z,9.30
2019-05-30T04:08:53.361Z,7.23
2019-05-30T04:11:24.713Z,6.90
2019-05-30T04:13:56.763Z,9.07
2019-05-30T04:16:26.901Z,9.23
2019-05-30T04:18:56.914Z,7.37
2019-05-30T04:21:26.913Z,7.43
2019-05-30T04:23:56.739Z,11.73
2019-05-30T04:26:27.260Z,7.00
2019-05-30T04:28:56.967Z,6.73
2019-05-30T04:31:26.576Z,9.53
2019-05-30T04:33:56.610Z,9.90
2019-05-30T04:36:26.715Z,9.97
2019-05-30T04:38:56.617Z,8.73
2019-05-30T04:41:26.639Z,5.83
2019-05-30T04:43:56.568Z,9.40
2019-05-30T04:46:45.327Z,8.90
2019-05-30T04:49:16.809Z,10.13
2019-05-30T04:51:51.687Z,9.37
2019-05-30T04:54:21.900Z,7.87
2019-05-30T04:56:52.040Z,5.97
2019-05-30T04:59:24.821Z,9.57
2019-05-30T05:01:57.301Z,13.03
2019-05-30T05:04:32.830Z,10.17
2019-05-30T05:07:06.538Z,11.97
2019-05-30T05:09:51.619Z,9.77
2019-05-30T05:12:30.224Z,6.50
2019-05-30T05:15:25.893Z,10.50
2019-05-30T05:24:59.283Z,6.33
2019-05-30T05:27:40.153Z,7.30
2019-05-30T05:30:22.593Z,7.73
2019-05-30T05:32:53.704Z,6.73
2019-05-30T05:45:05.559Z,9.67
2019-05-30T05:47:38.342Z,6.17
2019-05-30T05:50:11.115Z,5.07
2019-05-30T05:52:45.439Z,7.80
2019-05-30T05:55:16.719Z,3.87
2019-05-30T05:57:46.719Z,7.33
2019-05-30T06:00:17.041Z,5.13
2019-05-30T06:02:47.160Z,6.03
2019-05-30T06:05:17.810Z,8.07
2019-05-30T06:07:48.193Z,6.43
2019-05-30T06:10:19.544Z,5.53
2019-05-30T06:12:49.558Z,5.13
2019-05-30T06:15:20.814Z,6.03
2019-05-30T06:18:00.046Z,5.40
2019-05-30T06:20:39.365Z,4.03
2019-05-30T06:23:19.410Z,5.17
2019-05-30T06:25:56.086Z,3.67
2019-05-30T06:28:35.635Z,5.53
2019-05-30T06:31:09.749Z,4.47
2019-05-30T06:33:39.577Z,4.70
2019-05-30T06:36:09.272Z,4.77
2019-05-30T06:38:39.491Z,7.33
2019-05-30T06:41:09.201Z,5.90
2019-05-30T06:43:39.038Z,6.70
2019-05-30T06:46:09.039Z,4.77
2019-05-30T06:48:39.285Z,9.73
2019-05-30T06:51:09.884Z,5.60
2019-05-30T06:53:39.890Z,3.97
2019-05-30T06:56:09.813Z,5.77
2019-05-30T06:58:48.525Z,5.73
2019-05-30T07:01:14.863Z,6.53
2019-05-30T07:03:44.913Z,6.67
2019-05-30T07:06:15.242Z,6.17
2019-05-30T07:08:45.531Z,4.53
2019-05-30T07:11:15.658Z,5.37
2019-05-30T07:13:45.365Z,4.67
2019-05-30T07:16:15.576Z,5.77
2019-05-30T07:18:45.895Z,4.03
2019-05-30T07:21:19.659Z,5.03
2019-05-30T07:23:50.465Z,4.50
2019-05-30T07:26:29.906Z,7.40
2019-05-30T07:29:00.785Z,7.53
2019-05-30T07:31:32.133Z,4.47
2019-05-30T07:34:02.176Z,5.00
2019-05-30T07:36:32.307Z,7.83
2019-05-30T07:39:03.551Z,5.33
2019-05-30T07:41:33.381Z,4.37
2019-05-30T07:44:03.166Z,4.27
2019-05-30T07:46:33.190Z,3.67
2019-05-30T07:49:03.199Z,6.93
2019-05-30T07:51:33.012Z,4.77
2019-05-30T07:54:02.914Z,3.53
2019-05-30T07:56:33.451Z,3.37
2019-05-30T07:59:03.475Z,7.63
2019-05-30T08:01:33.187Z,3.30
2019-05-30T08:04:03.193Z,5.53
2019-05-30T08:06:33.843Z,6.83
2019-05-30T08:09:04.563Z,4.27
2019-05-30T08:11:35.053Z,4.07
2019-05-30T08:14:05.215Z,3.60
2019-05-30T08:16:35.513Z,4.13
2019-05-30T08:19:06.164Z,2.63
2019-05-30T08:21:36.357Z,3.50
2019-05-30T08:24:06.195Z,5.00
2019-05-30T08:26:36.427Z,4.93
2019-05-30T08:29:06.537Z,3.07
2019-05-30T08:31:36.892Z,6.20
2019-05-30T08:34:06.881Z,6.03
2019-05-30T08:36:37.114Z,5.07
2019-05-30T08:39:08.103Z,3.07
2019-05-30T08:41:41.235Z,3.60
2019-05-30T08:44:11.251Z,3.27
2019-05-30T08:46:40.965Z,8.60
2019-05-30T08:49:11.305Z,3.57
2019-05-30T08:51:41.294Z,4.70
2019-05-30T08:54:13.713Z,3.77
2019-05-30T08:56:43.071Z,3.07
2019-05-30T08:59:13.291Z,2.23
2019-05-30T09:01:43.930Z,3.33
2019-05-30T09:04:14.038Z,5.20
2019-05-30T09:06:44.253Z,3.13
2019-05-30T09:09:14.480Z,2.27
2019-05-30T09:11:44.517Z,7.50
2019-05-30T09:14:15.026Z,3.53
2019-05-30T09:16:46.530Z,4.63
2019-05-30T09:19:17.011Z,4.30
2019-05-30T09:21:47.487Z,5.33
2019-05-30T09:24:17.569Z,4.17
2019-05-30T09:26:50.035Z,2.40
2019-05-30T09:29:18.814Z,5.87
2019-05-30T09:31:48.828Z,3.77
2019-05-30T09:34:18.941Z,4.30
2019-05-30T09:36:49.211Z,4.67
2019-05-30T09:39:18.971Z,5.50
2019-05-30T09:41:49.833Z,3.13
2019-05-30T09:44:19.730Z,3.17
2019-05-30T09:46:50.546Z,2.90
2019-05-30T09:49:20.792Z,4.20
2019-05-30T09:51:51.191Z,2.90
2019-05-30T09:54:21.846Z,4.80
2019-05-30T09:56:53.113Z,6.13
2019-05-30T09:59:24.132Z,5.03
2019-05-30T10:01:54.050Z,3.20
2019-05-30T10:04:23.857Z,3.50
2019-05-30T10:06:53.873Z,3.40
2019-05-30T10:09:23.687Z,2.23
2019-05-30T10:11:53.626Z,3.67
2019-05-30T10:14:23.413Z,3.27
2019-05-30T10:16:56.471Z,3.27
2019-05-30T10:19:25.288Z,3.77
2019-05-30T10:21:55.615Z,2.73
2019-05-30T10:24:25.831Z,3.47
2019-05-30T10:26:57.308Z,3.13
2019-05-30T10:29:27.410Z,4.60
2019-05-30T10:31:57.060Z,2.97
2019-05-30T10:34:27.437Z,2.17
2019-05-30T10:36:57.663Z,4.90
2019-05-30T10:39:28.195Z,3.57
2019-05-30T10:41:58.307Z,4.47
2019-05-30T10:44:31.495Z,3.93
2019-05-30T10:47:01.412Z,3.40
2019-05-30T10:49:37.883Z,7.60
2019-05-30T10:52:41.283Z,5.47
2019-05-30T10:55:10.575Z,3.73
2019-05-30T10:57:40.695Z,1.73
2019-05-30T11:00:13.680Z,5.47
2019-05-30T11:02:47.854Z,3.33
2019-05-30T11:05:20.036Z,3.20
2019-05-30T11:08:05.556Z,2.63
2019-05-30T11:10:36.278Z,4.30
2019-05-30T11:13:09.778Z,3.03
2019-05-30T11:15:45.522Z,2.47
2019-05-30T11:18:16.798Z,4.13
2019-05-30T11:20:49.891Z,2.73
2019-05-30T11:23:20.436Z,4.77
2019-05-30T11:25:50.498Z,3.13
2019-05-30T11:28:21.450Z,5.10
2019-05-30T11:30:52.665Z,3.33
2019-05-30T11:33:23.522Z,4.00
2019-05-30T11:35:55.050Z,4.87
2019-05-30T11:38:25.812Z,1.97
2019-05-30T11:40:57.455Z,4.87
2019-05-30T11:43:27.487Z,3.73
2019-05-30T11:45:59.749Z,4.93
2019-05-30T11:48:29.873Z,2.70
2019-05-30T11:51:02.446Z,3.17
2019-05-30T11:53:33.493Z,3.73
2019-05-30T11:56:03.709Z,2.40
2019-05-30T11:58:33.825Z,3.13
2019-05-30T12:01:04.049Z,3.00
2019-05-30T12:03:33.958Z,3.63
2019-05-30T12:06:03.875Z,2.60
2019-05-30T12:08:33.587Z,2.23
2019-05-30T12:11:04.020Z,3.20
2019-05-30T12:13:33.525Z,4.30
2019-05-30T12:16:03.537Z,5.20
2019-05-30T12:18:33.760Z,8.23
2019-05-30T12:21:04.495Z,5.00
2019-05-30T12:23:34.813Z,7.60
2019-05-30T12:26:05.448Z,4.03
2019-05-30T12:28:35.665Z,6.47
2019-05-30T12:31:06.793Z,2.57
2019-05-30T12:33:37.245Z,3.00
2019-05-30T12:36:08.273Z,3.37
2019-05-30T12:38:38.292Z,3.63
2019-05-30T12:41:10.255Z,5.20
2019-05-30T12:43:41.101Z,5.57
2019-05-30T12:46:11.514Z,2.63
2019-05-30T12:48:41.638Z,4.17
2019-05-30T12:51:12.058Z,3.67
2019-05-30T12:53:42.386Z,2.27
2019-05-30T12:56:13.114Z,4.10
2019-05-30T12:58:43.441Z,3.37
2019-05-30T13:01:13.159Z,4.40
2019-05-30T13:03:43.164Z,3.90
2019-05-30T13:06:13.184Z,2.63
2019-05-30T13:08:42.997Z,5.07
2019-05-30T13:11:13.218Z,5.60
2019-05-30T13:13:43.441Z,4.47
2019-05-30T13:16:14.475Z,3.10
2019-05-30T13:18:44.899Z,1.47
2019-05-30T13:21:33.559Z,2.17
2019-05-30T13:24:03.977Z,4.80
2019-05-30T13:26:35.329Z,4.10
2019-05-30T13:29:06.451Z,3.03
2019-05-30T13:31:36.892Z,2.43
2019-05-30T13:34:15.417Z,4.17
2019-05-30T13:36:45.538Z,3.67
2019-05-30T13:39:22.104Z,4.07
2019-05-30T13:41:52.325Z,7.23
2019-05-30T13:44:22.357Z,4.10
2019-05-30T13:46:52.677Z,3.90
2019-05-30T13:49:22.588Z,2.93
2019-05-30T13:51:52.494Z,3.13
2019-05-30T13:54:22.914Z,3.17
2019-05-30T13:56:56.528Z,4.90
2019-05-30T13:59:26.434Z,2.73
2019-05-30T14:02:03.976Z,2.77
2019-05-30T14:04:34.663Z,4.60
2019-05-30T14:07:04.475Z,3.90
2019-05-30T14:09:39.615Z,2.67
2019-05-30T14:12:10.684Z,4.07
2019-05-30T14:14:40.879Z,5.57
2019-05-30T14:17:13.633Z,4.87
2019-05-30T14:19:44.697Z,2.97
2019-05-30T14:22:15.533Z,4.20
2019-05-30T14:24:45.446Z,3.73
2019-05-30T14:27:15.557Z,5.17
2019-05-30T14:29:45.491Z,7.50
2019-05-30T14:32:15.288Z,3.57
2019-05-30T14:34:45.109Z,4.10
2019-05-30T14:37:15.018Z,2.37
2019-05-30T14:39:45.241Z,2.63
2019-05-30T14:42:15.252Z,3.83
2019-05-30T14:44:45.267Z,5.20
2019-05-30T14:47:16.888Z,4.30
2019-05-30T14:49:47.558Z,3.47
2019-05-30T14:52:17.973Z,2.90
2019-05-30T14:54:48.105Z,5.33
2019-05-30T14:57:20.886Z,3.80
2019-05-30T14:59:50.795Z,5.10
2019-05-30T15:02:21.637Z,6.13
2019-05-30T15:04:53.292Z,5.20
2019-05-30T15:07:24.843Z,1.80
2019-05-30T15:09:55.163Z,4.07
2019-05-30T15:12:27.150Z,2.47
2019-05-30T15:14:58.591Z,2.37
2019-05-30T15:17:29.330Z,3.60
2019-05-30T15:19:59.634Z,4.87
2019-05-30T15:22:30.270Z,4.57
2019-05-30T15:25:00.996Z,4.87
2019-05-30T15:27:31.531Z,3.93
2019-05-30T15:30:01.646Z,5.03
2019-05-30T15:32:32.478Z,4.13
2019-05-30T15:35:03.218Z,4.43
2019-05-30T15:37:32.908Z,2.90
2019-05-30T15:40:03.348Z,2.53
2019-05-30T15:42:33.262Z,3.97
2019-05-30T15:45:03.593Z,3.37
2019-05-30T15:47:34.010Z,6.37
2019-05-30T15:50:04.238Z,4.57
2019-05-30T15:52:33.937Z,3.80
2019-05-30T15:55:04.164Z,5.27
2019-05-30T15:57:34.795Z,7.23
2019-05-30T16:00:07.489Z,5.27
2019-05-30T16:02:37.495Z,5.57
2019-05-30T16:05:10.472Z,3.90
2019-05-30T16:07:41.623Z,2.70
2019-05-30T16:10:27.516Z,3.30
2019-05-30T16:12:59.674Z,4.87
2019-05-30T16:15:31.446Z,5.03
2019-05-30T16:18:02.269Z,3.67
2019-05-30T16:20:34.642Z,2.57
2019-05-30T16:23:04.656Z,3.23
2019-05-30T16:25:34.790Z,3.97
2019-05-30T16:28:06.024Z,3.10
2019-05-30T16:30:36.240Z,5.10
2019-05-30T16:33:06.157Z,2.63
2019-05-30T16:35:40.070Z,4.10
2019-05-30T16:38:09.889Z,5.60
2019-05-30T16:40:39.810Z,3.47
2019-05-30T16:43:10.012Z,3.60
2019-05-30T16:45:40.539Z,4.83
2019-05-30T16:48:11.069Z,3.67
2019-05-30T16:50:41.620Z,3.33
2019-05-30T16:53:11.512Z,3.13
2019-05-30T16:55:41.530Z,2.80
2019-05-30T16:58:11.850Z,2.93
2019-05-30T17:00:41.890Z,3.33
2019-05-30T17:03:11.889Z,4.67
2019-05-30T17:05:42.208Z,3.50
2019-05-30T17:08:12.344Z,2.23
2019-05-30T17:10:43.159Z,2.50
2019-05-30T17:13:13.610Z,4.73
2019-05-30T17:15:43.909Z,4.30
2019-05-30T17:18:13.619Z,5.87
2019-05-30T17:20:45.279Z,4.23
2019-05-30T17:23:16.657Z,3.13
2019-05-30T17:25:48.283Z,3.37
2019-05-30T17:28:37.652Z,3.13
2019-05-30T17:31:08.392Z,2.57
2019-05-30T17:33:38.509Z,4.87
2019-05-30T17:36:08.624Z,4.83
2019-05-30T17:38:39.691Z,3.70
2019-05-30T17:41:09.574Z,10.73
2019-05-30T17:43:47.278Z,4.63
2019-05-30T17:46:17.285Z,3.33
2019-05-30T17:48:48.635Z,3.03
2019-05-30T17:51:19.760Z,5.90
2019-05-30T17:53:49.501Z,3.70
2019-05-30T17:56:20.033Z,4.07
2019-05-30T17:58:50.758Z,5.20
2019-05-30T18:01:22.233Z,3.13
2019-05-30T18:03:52.833Z,7.07
2019-05-30T18:06:24.411Z,5.90
2019-05-30T18:08:56.258Z,5.60
2019-05-30T18:11:26.945Z,3.67
2019-05-30T18:13:57.299Z,6.13
2019-05-30T18:16:29.201Z,4.60
2019-05-30T18:19:01.156Z,5.70
2019-05-30T18:21:32.059Z,4.23
2019-05-30T18:24:02.485Z,4.33
2019-05-30T18:26:33.257Z,6.50
2019-05-30T18:29:03.444Z,5.53
2019-05-30T18:31:34.070Z,5.33
2019-05-30T18:34:04.611Z,4.60
2019-05-30T18:36:36.766Z,5.63
2019-05-30T18:39:08.453Z,3.77
2019-05-30T18:41:41.327Z,5.83
2019-05-30T18:44:11.850Z,5.07
2019-05-30T18:46:42.790Z,3.73
2019-05-30T18:49:12.994Z,7.23
2019-05-30T18:51:43.731Z,4.53
2019-05-30T18:54:14.595Z,4.10
2019-05-30T18:56:44.987Z,3.23
2019-05-30T18:59:15.727Z,3.70
2019-05-30T19:01:46.255Z,4.57
2019-05-30T19:04:16.668Z,3.63
2019-05-30T19:06:47.522Z,5.17
2019-05-30T19:09:18.147Z,4.67
2019-05-30T19:11:48.470Z,7.63
2019-05-30T19:14:18.485Z,4.63
2019-05-30T19:16:49.218Z,6.20
2019-05-30T19:19:19.540Z,7.03
2019-05-30T19:21:50.480Z,4.87
2019-05-30T19:24:21.312Z,3.83
2019-05-30T19:26:52.152Z,7.20
2019-05-30T19:29:23.815Z,3.40
2019-05-30T19:31:54.889Z,5.03
2019-05-30T19:34:26.501Z,5.10
2019-05-30T19:36:57.849Z,5.77
2019-05-30T19:39:29.273Z,5.47
2019-05-30T19:42:00.035Z,7.50
2019-05-30T19:44:32.105Z,5.47
2019-05-30T19:47:03.757Z,6.03
2019-05-30T19:49:36.905Z,5.90
2019-05-30T19:52:09.215Z,5.73
2019-05-30T19:54:42.730Z,6.07
2019-05-30T19:57:13.447Z,5.63
2019-05-30T19:59:44.493Z,6.47
2019-05-30T20:02:15.422Z,5.37
2019-05-30T20:04:45.649Z,8.57
2019-05-30T20:07:19.673Z,7.57
2019-05-30T20:10:00.799Z,8.57
2019-05-30T20:12:23.989Z,9.40
2019-05-30T20:14:55.440Z,12.20
2019-05-30T20:17:29.839Z,9.13
2019-05-30T20:20:00.192Z,12.37
2019-05-30T20:22:31.833Z,10.13
2019-05-30T20:25:02.674Z,12.67
2019-05-30T20:27:34.872Z,8.80
2019-05-30T20:30:06.611Z,11.70
2019-05-30T20:32:38.873Z,9.30
2019-05-30T20:35:11.050Z,9.47
2019-05-30T20:37:46.993Z,12.80
2019-05-30T20:40:17.618Z,9.20
2019-05-30T20:42:48.684Z,11.07
2019-05-30T20:45:19.622Z,13.63
2019-05-30T20:47:50.654Z,16.00
2019-05-30T20:50:21.700Z,19.93
2019-05-30T20:52:52.540Z,18.67
2019-05-30T20:55:22.901Z,18.63
2019-05-30T20:57:54.312Z,17.30
2019-05-30T21:00:27.910Z,19.27
2019-05-30T21:02:59.462Z,14.20
2019-05-30T21:05:35.721Z,19.40
2019-05-30T21:08:07.788Z,15.27
2019-05-30T21:10:43.239Z,19.17
2019-05-30T21:13:14.872Z,25.13
2019-05-30T21:15:48.919Z,25.67
2019-05-30T21:18:25.271Z,26.67
2019-05-30T21:21:02.152Z,25.53
2019-05-30T21:23:38.303Z,23.03
2019-05-30T21:26:11.571Z,22.60
2019-05-30T21:28:45.420Z,23.90
2019-05-30T21:31:17.748Z,22.50
2019-05-30T21:33:48.992Z,23.63
2019-05-30T21:36:19.732Z,21.30
2019-05-30T21:38:50.359Z,23.43
2019-05-30T21:41:20.477Z,17.97
2019-05-30T21:43:50.721Z,18.73
2019-05-30T21:46:21.241Z,19.17
2019-05-30T21:48:51.682Z,21.17
2019-05-30T21:51:22.495Z,17.83
2019-05-30T21:53:52.815Z,19.57
2019-05-30T21:56:23.663Z,16.40
2019-05-30T21:58:54.619Z,18.57
2019-05-30T22:01:30.236Z,13.77
2019-05-30T22:04:00.461Z,16.70
2019-05-30T22:06:30.574Z,17.77
2019-05-30T22:09:19.231Z,18.00
2019-05-30T22:11:49.711Z,18.40
2019-05-30T22:14:20.301Z,14.53
2019-05-30T22:16:50.506Z,18.00
2019-05-30T22:19:21.262Z,18.33
2019-05-30T22:21:52.354Z,15.27
2019-05-30T22:24:25.293Z,14.70
2019-05-30T22:26:56.209Z,16.00
2019-05-30T22:29:27.679Z,18.00
2019-05-30T22:32:16.627Z,12.47
2019-05-30T22:34:48.696Z,14.07
2019-05-30T22:37:19.021Z,11.67
2019-05-30T22:39:50.927Z,14.13
2019-05-30T22:42:21.610Z,13.37
2019-05-30T22:44:52.306Z,16.17
2019-05-30T22:47:22.669Z,16.33
2019-05-30T22:49:53.084Z,11.13
2019-05-30T22:52:23.509Z,11.17
2019-05-30T22:54:53.629Z,10.80
2019-05-30T22:57:24.257Z,12.70
2019-05-30T22:59:54.913Z,10.60
2019-05-30T23:02:25.647Z,10.97
2019-05-30T23:04:56.423Z,11.43
2019-05-30T23:07:27.217Z,12.13
2019-05-30T23:09:57.634Z,12.70
2019-05-30T23:12:28.901Z,15.43
2019-05-30T23:14:59.599Z,17.13
2019-05-30T23:17:30.236Z,14.77
2019-05-30T23:20:01.273Z,20.80
2019-05-30T23:22:32.117Z,14.33
2019-05-30T23:25:03.038Z,15.63
2019-05-30T23:27:33.675Z,14.40
2019-05-30T23:30:04.912Z,16.63
2019-05-30T23:32:35.443Z,14.53
2019-05-30T23:35:06.285Z,17.37
2019-05-30T23:37:37.232Z,17.57
2019-05-30T23:40:08.691Z,16.53
2019-05-30T23:42:38.700Z,13.93
2019-05-30T23:45:09.215Z,15.00
2019-05-30T23:47:39.639Z,16.47
2019-05-30T23:50:09.770Z,17.30
2019-05-30T23:52:40.497Z,16.87
2019-05-30T23:55:11.324Z,15.77
2019-05-30T23:57:41.880Z,18.27
